Weather - Helsinki Query any day in the database

Current weather  

Weather data for a selected day (2006-01-01 -2020-10-30)
Enter date:     <-     scroll days         ->
day curves
Low temperature°C -2.007:20
High temperature°C +14.017:50
Low wind chill°C -4.704:50
Average temperature°C +6.1 
High wind speed (10 min) m/s 3.018:20
Low pressurehPa 1035.023:50
High pressurehPa 1038.015:20
Low R.H% 3116:20
High R.H% 9308:20
Day weather data as a table
Date Time Temp
°C
Chill
°C
Pressure
hPA
Wind
m/s
Hum
%
Precip
mm
2007-03-25 23:50:00 2.0  -0.1  1035.0 2.0 81 -
2007-03-25 23:20:00 3.0  1.0  1035.0 2.0 81 -
2007-03-25 22:50:00 2.0  1.4  1035.0 1.0 87 -
2007-03-25 22:20:00 4.0  3.6  1035.0 1.0 75 -
2007-03-25 21:50:00 4.0  2.2  1036.0 2.0 75 -
2007-03-25 21:20:00 6.0  4.5  1036.0 2.0 61 -
2007-03-25 20:50:00 7.0  5.7  1035.0 2.0 57 -
2007-03-25 20:20:00 8.0  6.8  1036.0 2.0 53 -
2007-03-25 19:50:00 9.0  8.0  1036.0 2.0 50 -
2007-03-25 19:20:00 11.0  10.3  1036.0 2.0 44 -
2007-03-25 18:50:00 12.0  11.5  1036.0 2.0 41 -
2007-03-25 18:20:00 13.0  12.1  1036.0 3.0 36 -
2007-03-25 17:50:00 14.0  13.8  1036.0 2.0 36 -
2007-03-25 17:20:00 14.0  13.8  1036.0 2.0 36 -
2007-03-25 16:50:00 14.0  13.3  1037.0 3.0 33 -
2007-03-25 16:20:00 14.0  13.3  1037.0 3.0 31 -
2007-03-25 15:50:00 13.0  12.7  1037.0 2.0 33 -
2007-03-25 15:20:00 13.0  12.7  1038.0 2.0 33 -
2007-03-25 14:50:00 13.0  12.7  1038.0 2.0 38 -
2007-03-25 14:20:00 13.0  12.7  1038.0 2.0 38 -
2007-03-25 13:50:00 12.0  11.5  1038.0 2.0 41 -
2007-03-25 13:20:00 12.0  12.0  1038.0 1.0 38 -
2007-03-25 12:50:00 11.0  11.0  1038.0 1.0 44 -
2007-03-25 12:20:00 10.0  10.0  1038.0 1.0 50 -
2007-03-25 11:50:00 9.0  9.0  1038.0 1.0 54 -
2007-03-25 11:20:00 7.0  6.9  1038.0 1.0 61 -
2007-03-25 10:50:00 6.0  5.8  1038.0 1.0 61 -
2007-03-25 10:20:00 5.0  4.7  1038.0 1.0 66 -
2007-03-25 09:50:00 4.0  3.6  1038.0 1.0 70 -
2007-03-25 09:20:00 1.0  0.3  1038.0 1.0 87 -
2007-03-25 08:50:00 0.0  -0.8  1038.0 1.0 87 -
2007-03-25 08:20:00 -1.0  -1.9  1038.0 1.0 93 -
2007-03-25 07:50:00 -1.0  -3.6  1038.0 2.0 86 -
2007-03-25 07:20:00 -2.0  -3.1  1038.0 1.0 93 -
2007-03-25 06:50:00 -1.0  -3.6  1038.0 2.0 86 -
2007-03-25 06:20:00 0.0  -2.5  1038.0 2.0 87 -
2007-03-25 05:50:00 1.0  -1.3  1038.0 2.0 81 -
2007-03-25 05:20:00 1.0  -1.3  1038.0 2.0 81 -
2007-03-25 04:50:00 -1.0  -4.7  1038.0 3.0 86 -
2007-03-25 02:20:00 0.0  -2.5  1037.0 2.0 87 -
2007-03-25 01:50:00 0.0  -0.8  1037.0 1.0 87 -
2007-03-25 01:20:00 1.0  -1.3  1037.0 2.0 75 -
2007-03-25 00:50:00 1.0  -1.3  1037.0 2.0 81 -
2007-03-25 00:20:00 3.0  0.1  1037.0 3.0 70 -
Unit conversions: